createdAt,value
2018-09-25T00:01:39.836Z,4.30
2018-09-25T00:04:19.191Z,4.30
2018-09-25T00:06:52.001Z,5.33
2018-09-25T00:09:25.226Z,5.00
2018-09-25T00:11:57.992Z,6.33
2018-09-25T00:14:30.543Z,5.03
2018-09-25T00:17:03.233Z,9.40
2018-09-25T00:19:36.272Z,8.48
2018-09-25T00:22:09.016Z,9.73
2018-09-25T00:24:41.732Z,9.60
2018-09-25T00:27:14.540Z,7.20
2018-09-25T00:29:47.365Z,4.87
2018-09-25T00:32:20.064Z,6.40
2018-09-25T00:34:53.040Z,5.33
2018-09-25T00:37:25.600Z,5.62
2018-09-25T00:39:58.265Z,6.53
2018-09-25T00:42:30.908Z,4.70
2018-09-25T00:45:03.592Z,5.97
2018-09-25T00:47:36.263Z,6.47
2018-09-25T00:50:08.905Z,4.33
2018-09-25T00:52:41.709Z,7.60
2018-09-25T00:55:14.508Z,8.00
2018-09-25T00:57:47.165Z,5.47
2018-09-25T01:00:19.844Z,6.58
2018-09-25T01:02:52.476Z,4.62
2018-09-25T01:05:25.111Z,6.40
2018-09-25T01:07:57.745Z,6.33
2018-09-25T01:10:30.463Z,7.87
2018-09-25T01:13:03.151Z,6.10
2018-09-25T01:15:35.780Z,6.23
2018-09-25T01:18:08.363Z,4.20
2018-09-25T01:20:40.942Z,6.83
2018-09-25T01:23:13.640Z,6.28
2018-09-25T01:25:46.220Z,4.25
2018-09-25T01:28:18.936Z,9.53
2018-09-25T01:30:51.432Z,4.15
2018-09-25T01:33:24.056Z,6.03
2018-09-25T01:35:56.688Z,5.17
2018-09-25T01:38:29.472Z,2.50
2018-09-25T01:41:02.649Z,5.05
2018-09-25T01:43:36.137Z,5.87
2018-09-25T01:46:08.885Z,9.03
2018-09-25T01:48:41.604Z,5.75
2018-09-25T01:51:14.268Z,8.10
2018-09-25T01:53:46.927Z,4.60
2018-09-25T01:56:19.672Z,6.47
2018-09-25T01:58:52.240Z,5.70
2018-09-25T02:01:24.937Z,6.65
2018-09-25T02:03:57.529Z,6.05
2018-09-25T02:06:30.200Z,5.08
2018-09-25T02:09:02.828Z,7.05
2018-09-25T02:11:35.479Z,7.28
2018-09-25T02:14:08.193Z,7.80
2018-09-25T02:16:40.855Z,4.85
2018-09-25T02:19:13.594Z,5.75
2018-09-25T02:21:46.255Z,4.03
2018-09-25T02:24:19.062Z,4.60
2018-09-25T02:26:51.837Z,7.30
2018-09-25T02:29:24.451Z,3.72
2018-09-25T02:31:57.173Z,5.05
2018-09-25T02:34:29.828Z,8.00
2018-09-25T02:37:02.584Z,9.88
2018-09-25T02:39:35.372Z,4.53
2018-09-25T02:42:08.094Z,5.33
2018-09-25T02:44:40.823Z,7.72
2018-09-25T02:47:13.551Z,6.37
2018-09-25T02:49:46.215Z,6.37
2018-09-25T02:52:18.769Z,4.87
2018-09-25T02:54:51.556Z,6.20
2018-09-25T02:57:24.324Z,5.15
2018-09-25T02:59:56.951Z,7.10
2018-09-25T03:02:29.686Z,7.08
2018-09-25T03:05:02.318Z,6.03
2018-09-25T03:07:34.944Z,4.47
2018-09-25T03:10:07.545Z,4.70
2018-09-25T03:12:40.201Z,8.20
2018-09-25T03:15:12.946Z,4.58
2018-09-25T03:17:45.494Z,4.30
2018-09-25T03:20:18.209Z,5.95
2018-09-25T03:22:50.899Z,5.78
2018-09-25T03:25:23.628Z,5.83
2018-09-25T03:27:56.177Z,7.53
2018-09-25T03:30:28.785Z,5.50
2018-09-25T03:33:01.459Z,6.75
2018-09-25T03:35:34.068Z,7.47
2018-09-25T03:38:06.698Z,6.85
2018-09-25T03:40:39.425Z,8.53
2018-09-25T03:43:12.161Z,5.08
2018-09-25T03:45:44.872Z,7.37
2018-09-25T03:48:17.470Z,6.10
2018-09-25T03:50:50.128Z,6.87
2018-09-25T03:53:22.788Z,7.72
2018-09-25T03:55:55.473Z,6.22
2018-09-25T03:58:28.113Z,8.20
2018-09-25T04:01:00.794Z,6.42
2018-09-25T04:03:33.525Z,5.85
2018-09-25T04:06:06.223Z,6.95
2018-09-25T04:08:38.884Z,6.37
2018-09-25T04:11:11.638Z,9.58
2018-09-25T04:13:44.344Z,7.90
2018-09-25T04:16:16.982Z,4.58
2018-09-25T04:18:49.656Z,8.48
2018-09-25T04:21:22.313Z,4.58
2018-09-25T04:23:54.990Z,6.05
2018-09-25T04:26:27.664Z,7.90
2018-09-25T04:29:00.328Z,7.35
2018-09-25T04:31:32.986Z,5.47
2018-09-25T04:34:05.650Z,7.03
2018-09-25T04:36:38.280Z,8.58
2018-09-25T04:39:13.512Z,4.80
2018-09-25T04:41:46.400Z,10.50
2018-09-25T04:44:19.025Z,5.78
2018-09-25T04:46:51.821Z,8.18
2018-09-25T04:49:24.566Z,7.83
2018-09-25T04:51:57.244Z,5.72
2018-09-25T04:54:30.020Z,7.28
2018-09-25T04:57:02.780Z,6.70
2018-09-25T04:59:35.416Z,9.73
2018-09-25T05:02:08.173Z,6.55
2018-09-25T05:04:40.840Z,4.83
2018-09-25T05:07:13.621Z,7.80
2018-09-25T05:09:46.309Z,8.20
2018-09-25T05:12:19.073Z,7.53
2018-09-25T05:14:51.833Z,6.97
2018-09-25T05:17:24.516Z,7.08
2018-09-25T05:19:57.231Z,9.25
2018-09-25T05:22:29.899Z,10.05
2018-09-25T05:25:02.637Z,6.78
2018-09-25T05:27:35.404Z,9.73
2018-09-25T05:30:08.066Z,9.78
2018-09-25T05:32:40.767Z,7.60
2018-09-25T05:35:13.449Z,8.53
2018-09-25T05:37:46.133Z,7.97
2018-09-25T05:40:18.887Z,10.53
2018-09-25T05:42:51.590Z,9.95
2018-09-25T05:45:24.268Z,6.83
2018-09-25T05:47:56.986Z,11.30
2018-09-25T05:50:29.681Z,7.35
2018-09-25T05:53:02.385Z,7.67
2018-09-25T05:55:35.054Z,9.63
2018-09-25T05:58:07.681Z,5.95
2018-09-25T06:00:40.408Z,7.00
2018-09-25T06:03:13.129Z,8.55
2018-09-25T06:05:52.704Z,9.80
2018-09-25T06:08:25.394Z,10.47
2018-09-25T06:10:58.146Z,11.85
2018-09-25T06:13:30.836Z,10.15
2018-09-25T06:16:03.496Z,10.13
2018-09-25T06:18:36.233Z,9.53
2018-09-25T06:21:08.818Z,8.00
2018-09-25T06:23:41.572Z,9.03
2018-09-25T06:26:14.354Z,11.53
2018-09-25T06:28:47.144Z,12.30
2018-09-25T06:31:19.809Z,14.07
2018-09-25T06:33:52.484Z,16.03
2018-09-25T06:36:25.255Z,15.17
2018-09-25T06:38:57.920Z,15.10
2018-09-25T06:41:30.648Z,10.03
2018-09-25T06:44:03.330Z,10.70
2018-09-25T06:46:35.941Z,7.43
2018-09-25T06:49:08.714Z,8.63
2018-09-25T06:51:41.449Z,10.63
2018-09-25T06:54:14.160Z,7.03
2018-09-25T06:56:46.785Z,11.00
2018-09-25T06:59:19.533Z,11.87
2018-09-25T07:01:52.170Z,8.43
2018-09-25T07:04:24.813Z,10.80
2018-09-25T07:06:57.558Z,11.60
2018-09-25T07:09:30.261Z,12.00
2018-09-25T07:12:02.880Z,10.17
2018-09-25T07:14:35.886Z,8.67
2018-09-25T07:17:08.602Z,9.30
2018-09-25T07:19:41.289Z,6.30
2018-09-25T07:22:13.931Z,6.97
2018-09-25T07:24:47.144Z,8.70
2018-09-25T07:27:19.687Z,7.10
2018-09-25T07:29:52.294Z,8.80
2018-09-25T07:32:25.076Z,10.77
2018-09-25T07:34:57.927Z,7.40
2018-09-25T07:37:30.488Z,11.10
2018-09-25T07:40:03.236Z,6.57
2018-09-25T07:42:35.928Z,8.43
2018-09-25T07:45:08.918Z,7.23
2018-09-25T07:47:41.752Z,5.83
2018-09-25T07:50:14.294Z,2.90
2018-09-25T07:52:46.888Z,5.23
2018-09-25T07:55:19.503Z,6.43
2018-09-25T07:57:52.102Z,7.23
2018-09-25T08:00:24.816Z,7.87
2018-09-25T08:02:57.585Z,7.60
2018-09-25T08:05:30.531Z,8.20
2018-09-25T08:08:03.228Z,6.30
2018-09-25T08:10:36.189Z,12.33
2018-09-25T08:13:08.910Z,8.77
2018-09-25T08:15:41.620Z,7.33
2018-09-25T08:18:14.268Z,9.37
2018-09-25T08:20:46.936Z,11.70
2018-09-25T08:23:20.711Z,8.80
2018-09-25T08:25:53.359Z,6.13
2018-09-25T08:28:26.036Z,6.73
2018-09-25T08:31:00.565Z,12.80
2018-09-25T08:33:33.226Z,8.00
2018-09-25T08:36:07.470Z,6.43
2018-09-25T08:38:40.029Z,7.57
2018-09-25T08:41:12.729Z,2.97
2018-09-25T08:43:45.393Z,6.00
2018-09-25T08:46:18.193Z,5.90
2018-09-25T08:48:50.852Z,7.00
2018-09-25T08:51:23.952Z,6.27
2018-09-25T08:53:56.646Z,6.13
2018-09-25T08:56:30.122Z,7.77
2018-09-25T08:59:05.344Z,5.93
2018-09-25T09:01:37.933Z,8.83
2018-09-25T09:04:11.160Z,7.43
2018-09-25T09:06:43.839Z,8.50
2018-09-25T09:09:16.493Z,8.97
2018-09-25T09:11:49.100Z,5.63
2018-09-25T09:14:22.456Z,6.53
2018-09-25T09:16:55.123Z,5.70
2018-09-25T09:19:28.188Z,10.00
2018-09-25T09:22:01.365Z,4.97
2018-09-25T09:24:33.948Z,9.33
2018-09-25T09:27:06.631Z,8.10
2018-09-25T09:29:39.259Z,6.60
2018-09-25T09:32:14.136Z,5.07
2018-09-25T09:34:46.793Z,6.27
2018-09-25T09:37:19.420Z,7.30
2018-09-25T09:39:52.076Z,5.43
2018-09-25T09:42:24.761Z,8.23
2018-09-25T09:44:57.764Z,4.87
2018-09-25T09:47:30.544Z,10.47
2018-09-25T09:50:03.185Z,6.80
2018-09-25T09:52:35.862Z,5.70
2018-09-25T09:55:08.464Z,7.77
2018-09-25T09:57:44.450Z,5.70
2018-09-25T10:00:17.178Z,7.27
2018-09-25T10:02:49.841Z,6.83
2018-09-25T10:05:22.556Z,7.53
2018-09-25T10:07:55.233Z,3.97
2018-09-25T10:10:27.934Z,5.33
2018-09-25T10:13:00.668Z,5.73
2018-09-25T10:15:33.408Z,7.67
2018-09-25T10:18:06.138Z,5.13
2018-09-25T10:20:38.833Z,4.03
2018-09-25T10:23:11.374Z,6.37
2018-09-25T10:25:44.048Z,4.47
2018-09-25T10:28:16.861Z,6.90
2018-09-25T10:30:49.561Z,6.23
2018-09-25T10:33:22.264Z,4.83
2018-09-25T10:35:54.897Z,6.57
2018-09-25T10:38:27.521Z,7.00
2018-09-25T10:41:00.264Z,5.73
2018-09-25T10:43:32.781Z,5.60
2018-09-25T10:46:06.063Z,4.30
2018-09-25T10:48:38.871Z,7.30
2018-09-25T10:51:11.604Z,4.43
2018-09-25T10:53:44.340Z,5.13
2018-09-25T10:56:17.114Z,4.33
2018-09-25T10:58:49.693Z,4.37
2018-09-25T11:01:22.294Z,5.03
2018-09-25T11:03:55.077Z,5.40
2018-09-25T11:06:27.677Z,6.57
2018-09-25T11:09:00.336Z,5.70
2018-09-25T11:11:33.100Z,5.17
2018-09-25T11:14:05.782Z,4.53
2018-09-25T11:16:38.549Z,4.53
2018-09-25T11:19:11.171Z,4.00
2018-09-25T11:21:43.931Z,4.23
2018-09-25T11:24:16.653Z,5.63
2018-09-25T11:26:49.330Z,4.63
2018-09-25T11:29:22.084Z,4.67
2018-09-25T11:31:54.732Z,3.63
2018-09-25T11:34:27.445Z,4.73
2018-09-25T11:37:00.099Z,3.33
2018-09-25T11:39:32.812Z,6.10
2018-09-25T11:42:05.527Z,4.77
2018-09-25T11:44:38.266Z,5.93
2018-09-25T11:47:10.977Z,4.80
2018-09-25T11:49:43.643Z,2.80
2018-09-25T11:52:16.333Z,3.93
2018-09-25T11:54:48.968Z,5.97
2018-09-25T11:57:21.661Z,3.80
2018-09-25T11:59:54.372Z,3.83
2018-09-25T12:02:27.046Z,4.00
2018-09-25T12:04:59.717Z,3.33
2018-09-25T12:07:32.475Z,4.77
2018-09-25T12:10:05.197Z,4.67
2018-09-25T12:12:37.840Z,6.37
2018-09-25T12:15:10.565Z,4.43
2018-09-25T12:17:43.188Z,5.93
2018-09-25T12:20:15.917Z,5.03
2018-09-25T12:22:48.549Z,3.23
2018-09-25T12:25:21.276Z,3.47
2018-09-25T12:27:54.023Z,3.53
2018-09-25T12:30:26.679Z,4.33
2018-09-25T12:32:59.454Z,6.10
2018-09-25T12:35:32.021Z,5.60
2018-09-25T12:38:04.719Z,4.20
2018-09-25T12:40:37.465Z,8.70
2018-09-25T12:43:10.234Z,5.50
2018-09-25T12:45:42.888Z,5.03
2018-09-25T12:48:15.520Z,4.00
2018-09-25T12:50:48.124Z,3.87
2018-09-25T12:53:20.781Z,4.63
2018-09-25T12:55:53.381Z,3.30
2018-09-25T12:58:26.036Z,2.90
2018-09-25T13:00:58.711Z,3.13
2018-09-25T13:03:31.377Z,4.47
2018-09-25T13:06:04.091Z,3.10
2018-09-25T13:08:36.737Z,4.17
2018-09-25T13:11:09.397Z,4.93
2018-09-25T13:13:42.014Z,4.57
2018-09-25T13:16:14.533Z,4.57
2018-09-25T13:18:47.210Z,3.27
2018-09-25T13:21:19.916Z,5.07
2018-09-25T13:23:52.547Z,4.10
2018-09-25T13:26:25.369Z,3.50
2018-09-25T13:28:57.873Z,3.77
2018-09-25T13:31:30.585Z,5.03
2018-09-25T13:34:03.180Z,3.90
2018-09-25T13:36:35.893Z,6.23
2018-09-25T13:39:08.439Z,4.60
2018-09-25T13:41:40.963Z,2.70
2018-09-25T13:44:13.592Z,4.83
2018-09-25T13:46:46.180Z,4.67
2018-09-25T13:49:18.816Z,3.77
2018-09-25T13:51:51.485Z,4.20
2018-09-25T13:54:24.177Z,4.07
2018-09-25T13:56:56.890Z,4.87
2018-09-25T13:59:29.664Z,3.93
2018-09-25T14:02:02.396Z,2.40
2018-09-25T14:04:35.084Z,3.77
2018-09-25T14:07:07.721Z,5.97
2018-09-25T14:09:40.388Z,5.37
2018-09-25T14:12:13.067Z,3.07
2018-09-25T14:14:45.723Z,4.57
2018-09-25T14:17:18.373Z,4.30
2018-09-25T14:19:51.013Z,4.40
2018-09-25T14:22:23.637Z,4.23
2018-09-25T14:24:56.368Z,3.57
2018-09-25T14:27:28.996Z,5.60
2018-09-25T14:30:01.630Z,3.00
2018-09-25T14:32:34.257Z,4.47
2018-09-25T14:35:06.885Z,3.73
2018-09-25T14:37:39.462Z,3.90
2018-09-25T14:40:12.148Z,4.23
2018-09-25T14:42:44.777Z,2.80
2018-09-25T14:45:17.541Z,3.63
2018-09-25T14:47:50.343Z,2.53
2018-09-25T14:50:22.965Z,4.37
2018-09-25T14:52:55.547Z,4.13
2018-09-25T14:55:28.132Z,3.53
2018-09-25T14:58:00.876Z,3.10
2018-09-25T15:00:33.489Z,4.13
2018-09-25T15:03:06.144Z,5.27
2018-09-25T15:05:38.834Z,2.63
2018-09-25T15:08:11.556Z,4.13
2018-09-25T15:10:44.301Z,2.87
2018-09-25T15:13:23.516Z,4.67
2018-09-25T15:15:56.242Z,5.63
2018-09-25T15:18:28.940Z,4.13
2018-09-25T15:21:01.817Z,2.53
2018-09-25T15:23:34.360Z,2.83
2018-09-25T15:26:07.097Z,4.53
2018-09-25T15:28:39.820Z,5.27
2018-09-25T15:31:12.421Z,3.13
2018-09-25T15:33:45.094Z,3.97
2018-09-25T15:36:17.785Z,2.67
2018-09-25T15:38:50.490Z,3.40
2018-09-25T15:41:23.161Z,2.90
2018-09-25T15:43:55.761Z,4.03
2018-09-25T15:46:28.412Z,3.90
2018-09-25T15:49:01.122Z,2.13
2018-09-25T15:51:33.727Z,3.93
2018-09-25T15:54:06.401Z,2.57
2018-09-25T15:56:38.981Z,2.77
2018-09-25T15:59:11.768Z,3.60
2018-09-25T16:01:44.317Z,3.00
2018-09-25T16:04:17.016Z,3.23
2018-09-25T16:06:49.772Z,2.43
2018-09-25T16:09:22.401Z,2.13
2018-09-25T16:11:55.138Z,3.80
2018-09-25T16:14:27.817Z,3.03
2018-09-25T16:17:00.503Z,4.00
2018-09-25T16:19:33.151Z,4.33
2018-09-25T16:22:05.754Z,3.03
2018-09-25T16:24:38.393Z,3.63
2018-09-25T16:27:11.113Z,4.53
2018-09-25T16:29:43.728Z,3.27
2018-09-25T16:32:16.556Z,4.87
2018-09-25T16:34:49.278Z,3.20
2018-09-25T16:37:21.919Z,2.70
2018-09-25T16:39:54.649Z,5.70
2018-09-25T16:42:27.476Z,4.17
2018-09-25T16:45:00.125Z,3.87
2018-09-25T16:47:33.031Z,2.80
2018-09-25T16:50:05.637Z,3.20
2018-09-25T16:52:38.340Z,4.40
2018-09-25T16:55:11.045Z,4.87
2018-09-25T16:57:43.708Z,3.80
2018-09-25T17:00:16.353Z,5.13
2018-09-25T17:02:49.089Z,3.07
2018-09-25T17:05:21.692Z,3.03
2018-09-25T17:07:54.352Z,2.63
2018-09-25T17:10:27.125Z,6.20
2018-09-25T17:12:59.752Z,4.93
2018-09-25T17:15:32.392Z,4.23
2018-09-25T17:18:05.025Z,4.60
2018-09-25T17:20:37.847Z,6.17
2018-09-25T17:23:10.585Z,3.03
2018-09-25T17:25:43.248Z,6.03
2018-09-25T17:28:15.940Z,4.30
2018-09-25T17:30:48.624Z,5.03
2018-09-25T17:33:21.336Z,6.03
2018-09-25T17:35:54.041Z,4.40
2018-09-25T17:38:26.814Z,4.87
2018-09-25T17:40:59.401Z,5.20
2018-09-25T17:43:32.096Z,5.97
2018-09-25T17:46:04.781Z,5.37
2018-09-25T17:48:37.485Z,6.13
2018-09-25T17:51:10.251Z,8.27
2018-09-25T17:53:42.893Z,4.53
2018-09-25T17:56:15.626Z,4.77
2018-09-25T17:58:48.278Z,5.83
2018-09-25T18:01:20.953Z,5.50
2018-09-25T18:03:53.514Z,5.03
2018-09-25T18:06:26.224Z,3.83
2018-09-25T18:08:58.827Z,7.07
2018-09-25T18:11:31.579Z,5.07
2018-09-25T18:14:04.233Z,4.80
2018-09-25T18:16:36.885Z,2.90
2018-09-25T18:19:09.570Z,5.10
2018-09-25T18:21:42.372Z,7.57
2018-09-25T18:24:14.977Z,6.77
2018-09-25T18:26:47.697Z,5.53
2018-09-25T18:29:20.456Z,14.63
2018-09-25T18:31:53.077Z,16.83
2018-09-25T18:34:25.723Z,13.47
2018-09-25T18:36:58.463Z,15.63
2018-09-25T18:39:31.144Z,7.57
2018-09-25T18:42:03.873Z,5.83
2018-09-25T18:44:36.517Z,8.90
2018-09-25T18:47:09.237Z,8.73
2018-09-25T18:49:41.857Z,6.83
2018-09-25T18:55:50.935Z,6.40
2018-09-25T18:58:23.661Z,8.23
2018-09-25T19:00:56.317Z,6.50
2018-09-25T19:03:28.925Z,6.60
2018-09-25T19:06:01.585Z,6.23
2018-09-25T19:08:34.262Z,5.73
2018-09-25T19:11:06.897Z,6.47
2018-09-25T19:13:39.617Z,5.23
2018-09-25T19:16:12.227Z,5.47
2018-09-25T19:18:44.906Z,5.77
2018-09-25T19:21:17.566Z,6.17
2018-09-25T19:23:50.162Z,5.80
2018-09-25T19:26:22.824Z,6.00
2018-09-25T19:28:55.473Z,4.90
2018-09-25T19:31:28.062Z,4.80
2018-09-25T19:34:00.689Z,5.10
2018-09-25T19:36:33.439Z,4.17
2018-09-25T19:39:05.976Z,6.50
2018-09-25T19:41:38.581Z,4.57
2018-09-25T19:44:11.310Z,4.70
2018-09-25T19:46:43.997Z,5.73
2018-09-25T19:49:16.684Z,4.27
2018-09-25T19:51:49.324Z,4.53
2018-09-25T19:54:22.001Z,4.57
2018-09-25T19:56:54.632Z,7.97
2018-09-25T19:59:27.376Z,3.43
2018-09-25T20:02:00.025Z,3.67
2018-09-25T20:04:32.720Z,5.57
2018-09-25T20:07:05.386Z,5.83
2018-09-25T20:09:38.134Z,8.00
2018-09-25T20:12:10.815Z,4.60
2018-09-25T20:14:43.521Z,4.83
2018-09-25T20:17:16.245Z,7.60
2018-09-25T20:19:48.966Z,5.80
2018-09-25T20:22:21.617Z,6.63
2018-09-25T20:24:54.314Z,3.90
2018-09-25T20:27:27.073Z,6.27
2018-09-25T20:29:59.774Z,7.87
2018-09-25T20:32:32.379Z,4.40
2018-09-25T20:35:05.090Z,8.03
2018-09-25T20:37:37.787Z,7.67
2018-09-25T20:40:11.244Z,5.93
2018-09-25T20:42:43.920Z,6.27
2018-09-25T20:45:16.553Z,6.50
2018-09-25T20:47:49.138Z,4.70
2018-09-25T20:50:21.842Z,4.60
2018-09-25T20:52:54.445Z,6.33
2018-09-25T20:55:27.273Z,5.73
2018-09-25T20:57:59.856Z,7.00
2018-09-25T21:00:32.557Z,7.87
2018-09-25T21:03:05.156Z,6.83
2018-09-25T21:05:37.813Z,6.37
2018-09-25T21:08:10.749Z,3.27
2018-09-25T21:10:43.498Z,4.23
2018-09-25T21:13:16.252Z,7.47
2018-09-25T21:15:48.936Z,6.63
2018-09-25T21:18:21.717Z,3.27
2018-09-25T21:20:54.433Z,5.40
2018-09-25T21:23:27.123Z,5.37
2018-09-25T21:25:59.878Z,3.90
2018-09-25T21:28:32.560Z,6.17
2018-09-25T21:31:05.280Z,4.77
2018-09-25T21:33:37.968Z,6.40
2018-09-25T21:36:10.682Z,5.77
2018-09-25T21:38:43.284Z,4.47
2018-09-25T21:41:15.993Z,7.17
2018-09-25T21:43:48.754Z,6.20
2018-09-25T21:46:21.413Z,4.73
2018-09-25T21:48:54.185Z,5.93
2018-09-25T21:51:27.088Z,5.93
2018-09-25T21:53:59.567Z,7.17
2018-09-25T21:56:32.336Z,9.23
2018-09-25T21:59:05.050Z,6.47
2018-09-25T22:01:37.753Z,6.40
2018-09-25T22:04:10.492Z,6.50
2018-09-25T22:06:43.195Z,3.70
2018-09-25T22:09:15.927Z,8.77
2018-09-25T22:11:48.604Z,6.30
2018-09-25T22:14:21.181Z,5.00
2018-09-25T22:16:53.878Z,5.50
2018-09-25T22:19:26.612Z,9.80
2018-09-25T22:21:59.371Z,6.17
2018-09-25T22:24:31.952Z,5.93
2018-09-25T22:27:04.645Z,7.20
2018-09-25T22:29:37.386Z,8.17
2018-09-25T22:32:10.089Z,6.00
2018-09-25T22:34:42.719Z,6.67
2018-09-25T22:37:15.377Z,6.27
2018-09-25T22:39:48.040Z,5.97
2018-09-25T22:42:20.716Z,6.10
2018-09-25T22:44:53.413Z,6.63
2018-09-25T22:47:26.100Z,7.30
2018-09-25T22:49:58.754Z,6.17
2018-09-25T22:52:31.404Z,6.67
2018-09-25T22:55:04.138Z,5.23
2018-09-25T22:57:36.820Z,6.60
2018-09-25T23:00:09.497Z,6.10
2018-09-25T23:02:42.150Z,4.50
2018-09-25T23:05:14.876Z,5.50
2018-09-25T23:07:47.452Z,5.27
2018-09-25T23:10:20.142Z,4.87
2018-09-25T23:12:52.888Z,6.10
2018-09-25T23:15:25.528Z,7.60
2018-09-25T23:17:58.288Z,8.20
2018-09-25T23:20:30.988Z,6.50
2018-09-25T23:23:03.750Z,11.53
2018-09-25T23:25:36.297Z,4.93
2018-09-25T23:28:09.102Z,6.97
2018-09-25T23:30:41.781Z,6.83
2018-09-25T23:33:14.464Z,4.40
2018-09-25T23:35:47.141Z,6.60
2018-09-25T23:38:19.889Z,8.27
2018-09-25T23:40:52.298Z,5.33
2018-09-25T23:43:24.668Z,5.13
2018-09-25T23:45:56.172Z,6.13
2018-09-25T23:48:31.609Z,6.90
2018-09-25T23:51:07.192Z,7.03
2018-09-25T23:53:39.778Z,6.57
2018-09-25T23:56:18.496Z,10.40
2018-09-25T23:58:48.952Z,7.30
